sensor_id;sensor_type;location;lat;lon;timestamp;P1;P2;P0
82817;PMS5003;72572;46.824;-71.222;2023-09-19T00:00:09;14.45;12.6;7.4
82817;PMS5003;72572;46.824;-71.222;2023-09-19T00:02:36;9.57;9.29;7
82817;PMS5003;72572;46.824;-71.222;2023-09-19T00:05:02;14.45;13.3;6.25
82817;PMS5003;72572;46.824;-71.222;2023-09-19T00:07:27;10.05;10.05;7
82817;PMS5003;72572;46.824;-71.222;2023-09-19T00:09:51;13.75;12.7;8.85
82817;PMS5003;72572;46.824;-71.222;2023-09-19T00:12:16;15.9;14.85;10.6
82817;PMS5003;72572;46.824;-71.222;2023-09-19T00:14:43;19;17;10.25
82817;PMS5003;72572;46.824;-71.222;2023-09-19T00:17:06;21.06;17.39;10.39
82817;PMS5003;72572;46.824;-71.222;2023-09-19T00:19:34;15.81;15.67;10.67
82817;PMS5003;72572;46.824;-71.222;2023-09-19T00:22:00;14.65;13.55;8.95
82817;PMS5003;72572;46.824;-71.222;2023-09-19T00:24:24;17.5;16.4;10.35
82817;PMS5003;72572;46.824;-71.222;2023-09-19T00:26:51;16.65;15.8;10.1
82817;PMS5003;72572;46.824;-71.222;2023-09-19T00:29:17;13.75;13.75;8.85
82817;PMS5003;72572;46.824;-71.222;2023-09-19T00:31:40;18.25;17.1;11.1
82817;PMS5003;72572;46.824;-71.222;2023-09-19T00:34:06;14;12.9;9.5
82817;PMS5003;72572;46.824;-71.222;2023-09-19T00:36:31;15.19;14.62;8.81
82817;PMS5003;72572;46.824;-71.222;2023-09-19T00:38:58;19.3;17.65;11.65
82817;PMS5003;72572;46.824;-71.222;2023-09-19T00:41:24;17.4;15.4;10
82817;PMS5003;72572;46.824;-71.222;2023-09-19T00:43:50;20.42;16.58;10.21
82817;PMS5003;72572;46.824;-71.222;2023-09-19T00:46:16;18.5;17;11.35
82817;PMS5003;72572;46.824;-71.222;2023-09-19T00:48:40;17.25;15.8;9.4
82817;PMS5003;72572;46.824;-71.222;2023-09-19T00:51:05;17.6;16.4;11.7
82817;PMS5003;72572;46.824;-71.222;2023-09-19T00:53:29;21.48;21.19;13.71
82817;PMS5003;72572;46.824;-71.222;2023-09-19T00:55:56;20.95;20.21;14.05
82817;PMS5003;72572;46.824;-71.222;2023-09-19T00:58:20;28.05;26.37;16
82817;PMS5003;72572;46.824;-71.222;2023-09-19T01:00:46;34.58;31.21;19
82817;PMS5003;72572;46.824;-71.222;2023-09-19T01:03:13;31.11;29.79;19.16
82817;PMS5003;72572;46.824;-71.222;2023-09-19T01:05:38;38.7;32.3;20.35
82817;PMS5003;72572;46.824;-71.222;2023-09-19T01:08:03;29.67;28.5;18.5
82817;PMS5003;72572;46.824;-71.222;2023-09-19T01:10:27;31.42;30.16;20.16
82817;PMS5003;72572;46.824;-71.222;2023-09-19T01:12:54;29.11;28.33;18.39
82817;PMS5003;72572;46.824;-71.222;2023-09-19T01:15:21;29;28.42;18.68
82817;PMS5003;72572;46.824;-71.222;2023-09-19T01:17:52;22.79;22.26;14.89
82817;PMS5003;72572;46.824;-71.222;2023-09-19T01:20:27;22.53;21.63;13.84
82817;PMS5003;72572;46.824;-71.222;2023-09-19T01:22:37;19.58;18.42;13.79
82817;PMS5003;72572;46.824;-71.222;2023-09-19T01:26:18;22.63;21.89;14.11
82817;PMS5003;72572;46.824;-71.222;2023-09-19T01:27:33;19.9;18.9;13.05
82817;PMS5003;72572;46.824;-71.222;2023-09-19T01:29:52;21.79;19.63;12.11
82817;PMS5003;72572;46.824;-71.222;2023-09-19T01:32:17;21.83;19.22;11.78
82817;PMS5003;72572;46.824;-71.222;2023-09-19T01:34:51;17.05;16.6;12
82817;PMS5003;72572;46.824;-71.222;2023-09-19T01:37:08;12.7;12.55;8.35
82817;PMS5003;72572;46.824;-71.222;2023-09-19T01:39:34;14.05;13.35;9.1
82817;PMS5003;72572;46.824;-71.222;2023-09-19T01:41:59;25;20.53;11.89
82817;PMS5003;72572;46.824;-71.222;2023-09-19T01:44:28;34.05;29.95;17
82817;PMS5003;72572;46.824;-71.222;2023-09-19T01:46:50;26.63;24.63;15.16
82817;PMS5003;72572;46.824;-71.222;2023-09-19T01:49:24;19.95;19.63;12.74
82817;PMS5003;72572;46.824;-71.222;2023-09-19T01:51:46;18.75;18.15;10.8
82817;PMS5003;72572;46.824;-71.222;2023-09-19T01:54:10;17.55;16.25;10.35
82817;PMS5003;72572;46.824;-71.222;2023-09-19T01:56:34;15.3;14.05;10
82817;PMS5003;72572;46.824;-71.222;2023-09-19T01:59:02;17.4;16.8;10.25
82817;PMS5003;72572;46.824;-71.222;2023-09-19T02:01:24;16.62;16.48;10.71
82817;PMS5003;72572;46.824;-71.222;2023-09-19T02:03:49;18.05;16.26;9.95
82817;PMS5003;72572;46.824;-71.222;2023-09-19T02:06:16;20.78;17.67;9.44
82817;PMS5003;72572;46.824;-71.222;2023-09-19T02:08:38;21.42;15.95;7.89
82817;PMS5003;72572;46.824;-71.222;2023-09-19T02:11:02;14.9;14.9;9.35
82817;PMS5003;72572;46.824;-71.222;2023-09-19T02:13:29;18.42;17.68;11.42
82817;PMS5003;72572;46.824;-71.222;2023-09-19T02:15:53;26.95;21.35;11.1
82817;PMS5003;72572;46.824;-71.222;2023-09-19T02:18:22;19.05;18.95;11.33
82817;PMS5003;72572;46.824;-71.222;2023-09-19T02:20:46;15.55;13.95;7.75
82817;PMS5003;72572;46.824;-71.222;2023-09-19T02:23:12;13.2;12.7;6.65
82817;PMS5003;72572;46.824;-71.222;2023-09-19T02:25:36;16.8;14.2;8.15
82817;PMS5003;72572;46.824;-71.222;2023-09-19T02:28:01;19.85;15.8;10.55
82817;PMS5003;72572;46.824;-71.222;2023-09-19T02:30:26;12.57;12;8.67
82817;PMS5003;72572;46.824;-71.222;2023-09-19T02:32:50;16.25;16.1;8.6
82817;PMS5003;72572;46.824;-71.222;2023-09-19T02:35:19;15.29;15.05;8.95
82817;PMS5003;72572;46.824;-71.222;2023-09-19T02:37:42;15.55;14.25;9
82817;PMS5003;72572;46.824;-71.222;2023-09-19T02:40:08;15.2;14.5;8.7
82817;PMS5003;72572;46.824;-71.222;2023-09-19T02:42:32;16.05;14.1;8.5
82817;PMS5003;72572;46.824;-71.222;2023-09-19T02:44:57;18.68;15.11;9.84
82817;PMS5003;72572;46.824;-71.222;2023-09-19T02:47:23;19.5;17.95;11.8
82817;PMS5003;72572;46.824;-71.222;2023-09-19T02:49:49;16.4;16.1;9.9
82817;PMS5003;72572;46.824;-71.222;2023-09-19T02:52:28;15.45;14.25;10.45
82817;PMS5003;72572;46.824;-71.222;2023-09-19T02:54:53;12.19;11.95;8.81
82817;PMS5003;72572;46.824;-71.222;2023-09-19T02:57:20;14.4;14.15;8.3
82817;PMS5003;72572;46.824;-71.222;2023-09-19T02:59:45;14.1;13.6;9.25
82817;PMS5003;72572;46.824;-71.222;2023-09-19T03:02:11;11.85;11.65;8.05
82817;PMS5003;72572;46.824;-71.222;2023-09-19T03:04:36;15.3;14.65;9.25
82817;PMS5003;72572;46.824;-71.222;2023-09-19T03:07:00;21.47;18.95;10.84
82817;PMS5003;72572;46.824;-71.222;2023-09-19T03:09:25;14.76;13.81;8.14
82817;PMS5003;72572;46.824;-71.222;2023-09-19T03:11:50;16.75;15.5;9.95
82817;PMS5003;72572;46.824;-71.222;2023-09-19T03:14:16;21.58;19.11;11.37
82817;PMS5003;72572;46.824;-71.222;2023-09-19T03:16:43;12.4;11.85;9
82817;PMS5003;72572;46.824;-71.222;2023-09-19T03:19:08;11.95;11.95;6.8
82817;PMS5003;72572;46.824;-71.222;2023-09-19T03:21:34;14.25;14.25;9.35
82817;PMS5003;72572;46.824;-71.222;2023-09-19T03:23:57;13.8;11.9;7.05
82817;PMS5003;72572;46.824;-71.222;2023-09-19T03:26:24;13.33;13.24;7.9
82817;PMS5003;72572;46.824;-71.222;2023-09-19T03:28:50;16.65;15.2;9.4
82817;PMS5003;72572;46.824;-71.222;2023-09-19T03:31:15;10.8;10.2;7.35
82817;PMS5003;72572;46.824;-71.222;2023-09-19T03:33:41;12.8;11.35;7.5
82817;PMS5003;72572;46.824;-71.222;2023-09-19T03:36:06;12.55;12.35;7.65
82817;PMS5003;72572;46.824;-71.222;2023-09-19T03:38:32;12.75;11.65;6.5
82817;PMS5003;72572;46.824;-71.222;2023-09-19T03:40:57;10.85;10.45;6.65
82817;PMS5003;72572;46.824;-71.222;2023-09-19T03:43:20;16.24;14.62;8.52
82817;PMS5003;72572;46.824;-71.222;2023-09-19T03:45:46;13;13;7.2
82817;PMS5003;72572;46.824;-71.222;2023-09-19T03:48:13;15;14.6;8.55
82817;PMS5003;72572;46.824;-71.222;2023-09-19T03:50:39;13.4;12.65;8.05
82817;PMS5003;72572;46.824;-71.222;2023-09-19T03:53:03;13.15;12.8;7
82817;PMS5003;72572;46.824;-71.222;2023-09-19T03:55:28;12.65;12.05;6.6
82817;PMS5003;72572;46.824;-71.222;2023-09-19T03:57:55;12.2;11.9;6.55
82817;PMS5003;72572;46.824;-71.222;2023-09-19T04:00:20;15.62;14.19;8.71
82817;PMS5003;72572;46.824;-71.222;2023-09-19T04:02:47;14.65;14.05;9.25
82817;PMS5003;72572;46.824;-71.222;2023-09-19T04:05:10;13.15;12.7;7.95
82817;PMS5003;72572;46.824;-71.222;2023-09-19T04:07:34;12.8;12.25;7.2
82817;PMS5003;72572;46.824;-71.222;2023-09-19T04:10:01;10.6;10.2;6.2
82817;PMS5003;72572;46.824;-71.222;2023-09-19T04:12:27;7.35;7.35;4.75
82817;PMS5003;72572;46.824;-71.222;2023-09-19T04:14:52;11.15;10.4;7.8
82817;PMS5003;72572;46.824;-71.222;2023-09-19T04:17:16;9.43;9.43;6.57
82817;PMS5003;72572;46.824;-71.222;2023-09-19T04:19:43;9.24;9.24;5.38
82817;PMS5003;72572;46.824;-71.222;2023-09-19T04:22:09;9.75;9.35;5.45
82817;PMS5003;72572;46.824;-71.222;2023-09-19T04:24:34;9.55;8.85;5.4
82817;PMS5003;72572;46.824;-71.222;2023-09-19T04:27:00;4.05;4.05;2.9
82817;PMS5003;72572;46.824;-71.222;2023-09-19T04:29:23;11.58;8.74;4.89
82817;PMS5003;72572;46.824;-71.222;2023-09-19T04:31:50;6.5;6.5;4
82817;PMS5003;72572;46.824;-71.222;2023-09-19T04:34:16;8.19;7.86;5.24
82817;PMS5003;72572;46.824;-71.222;2023-09-19T04:36:41;5.71;5.48;4
82817;PMS5003;72572;46.824;-71.222;2023-09-19T04:39:07;6;5.57;4.1
82817;PMS5003;72572;46.824;-71.222;2023-09-19T04:41:30;7.15;7.15;4.8
82817;PMS5003;72572;46.824;-71.222;2023-09-19T04:43:56;7.5;7.1;4.8
82817;PMS5003;72572;46.824;-71.222;2023-09-19T04:46:22;6;5.45;3.95
82817;PMS5003;72572;46.824;-71.222;2023-09-19T04:48:46;6.62;6;3.81
82817;PMS5003;72572;46.824;-71.222;2023-09-19T04:51:13;8.86;5.91;3.09
82817;PMS5003;72572;46.824;-71.222;2023-09-19T04:53:36;4.76;4.76;3.43
82817;PMS5003;72572;46.824;-71.222;2023-09-19T04:56:04;7.29;5.76;4
82817;PMS5003;72572;46.824;-71.222;2023-09-19T04:58:30;6.52;5.76;4.29
82817;PMS5003;72572;46.824;-71.222;2023-09-19T05:00:55;5.14;5.14;3.9
82817;PMS5003;72572;46.824;-71.222;2023-09-19T05:03:19;8.8;8.6;3.95
82817;PMS5003;72572;46.824;-71.222;2023-09-19T05:05:45;6;6;4
82817;PMS5003;72572;46.824;-71.222;2023-09-19T05:08:12;4.86;4.76;3
82817;PMS5003;72572;46.824;-71.222;2023-09-19T05:10:36;6.38;6.38;3
82817;PMS5003;72572;46.824;-71.222;2023-09-19T05:13:01;6;5.48;3.76
82817;PMS5003;72572;46.824;-71.222;2023-09-19T05:15:27;5.5;5.5;3.2
82817;PMS5003;72572;46.824;-71.222;2023-09-19T05:17:52;5.5;4.9;3.4
82817;PMS5003;72572;46.824;-71.222;2023-09-19T05:20:15;7.19;6.9;3.67
82817;PMS5003;72572;46.824;-71.222;2023-09-19T05:22:42;5.86;5.67;3.24
82817;PMS5003;72572;46.824;-71.222;2023-09-19T05:25:08;9;9;4.24
82817;PMS5003;72572;46.824;-71.222;2023-09-19T05:27:35;5;5;4
82817;PMS5003;72572;46.824;-71.222;2023-09-19T05:30:00;4.14;3.62;2.76
82817;PMS5003;72572;46.824;-71.222;2023-09-19T05:32:25;4.48;4.19;2.76
82817;PMS5003;72572;46.824;-71.222;2023-09-19T05:34:51;5.62;5;3.62
82817;PMS5003;72572;46.824;-71.222;2023-09-19T05:37:16;6.25;6.25;3.55
82817;PMS5003;72572;46.824;-71.222;2023-09-19T05:39:40;6.9;5.9;4
82817;PMS5003;72572;46.824;-71.222;2023-09-19T05:42:06;3.95;3.95;3.14
82817;PMS5003;72572;46.824;-71.222;2023-09-19T05:44:30;5.19;4.38;2.67
82817;PMS5003;72572;46.824;-71.222;2023-09-19T05:46:57;5.38;4.62;3.24
82817;PMS5003;72572;46.824;-71.222;2023-09-19T05:49:21;3.86;3.86;2.71
82817;PMS5003;72572;46.824;-71.222;2023-09-19T05:51:46;7.52;4;2.76
82817;PMS5003;72572;46.824;-71.222;2023-09-19T05:54:11;5.14;5.14;2.81
82817;PMS5003;72572;46.824;-71.222;2023-09-19T05:56:36;7.4;7.4;4.05
82817;PMS5003;72572;46.824;-71.222;2023-09-19T05:59:02;5.1;5.1;3.86
82817;PMS5003;72572;46.824;-71.222;2023-09-19T06:01:30;6;4.81;3.05
82817;PMS5003;72572;46.824;-71.222;2023-09-19T06:03:53;5;4.67;3.1
82817;PMS5003;72572;46.824;-71.222;2023-09-19T06:06:18;4.76;3.67;2
82817;PMS5003;72572;46.824;-71.222;2023-09-19T06:08:44;6.71;5.38;3.95
82817;PMS5003;72572;46.824;-71.222;2023-09-19T06:11:10;5.86;5.38;3.05
82817;PMS5003;72572;46.824;-71.222;2023-09-19T06:13:35;10.1;9.95;5
82817;PMS5003;72572;46.824;-71.222;2023-09-19T06:16:02;9.64;9.5;5.41
82817;PMS5003;72572;46.824;-71.222;2023-09-19T06:18:26;12.57;11.62;6.05
82817;PMS5003;72572;46.824;-71.222;2023-09-19T06:20:53;12.43;11.62;6.1
82817;PMS5003;72572;46.824;-71.222;2023-09-19T06:23:18;5.95;5.95;4.81
82817;PMS5003;72572;46.824;-71.222;2023-09-19T06:25:44;7.62;5.24;3.67
82817;PMS5003;72572;46.824;-71.222;2023-09-19T06:28:08;8.62;7.57;4
82817;PMS5003;72572;46.824;-71.222;2023-09-19T06:30:32;5.95;5.48;3.67
82817;PMS5003;72572;46.824;-71.222;2023-09-19T06:32:59;7.36;7.14;5.18
82817;PMS5003;72572;46.824;-71.222;2023-09-19T06:35:26;4.68;4.32;2.68
82817;PMS5003;72572;46.824;-71.222;2023-09-19T06:37:49;5.05;4.76;2.67
82817;PMS5003;72572;46.824;-71.222;2023-09-19T06:40:16;5.05;4.76;3.67
82817;PMS5003;72572;46.824;-71.222;2023-09-19T06:42:41;5.76;4.38;2.76
82817;PMS5003;72572;46.824;-71.222;2023-09-19T06:45:07;5.33;5.33;3.67
82817;PMS5003;72572;46.824;-71.222;2023-09-19T06:47:32;5.38;5.1;3
82817;PMS5003;72572;46.824;-71.222;2023-09-19T06:49:59;6.05;4.86;3.18
82817;PMS5003;72572;46.824;-71.222;2023-09-19T06:52:23;4.62;3.76;2.38
82817;PMS5003;72572;46.824;-71.222;2023-09-19T06:54:49;7.95;5.62;4
82817;PMS5003;72572;46.824;-71.222;2023-09-19T06:57:13;7.24;6.1;4.52
82817;PMS5003;72572;46.824;-71.222;2023-09-19T06:59:39;4.33;3.81;2.24
82817;PMS5003;72572;46.824;-71.222;2023-09-19T07:02:03;5;4.33;3.05
82817;PMS5003;72572;46.824;-71.222;2023-09-19T07:04:28;2.43;2.19;1.81
82817;PMS5003;72572;46.824;-71.222;2023-09-19T07:06:56;3.18;3.18;1.77
82817;PMS5003;72572;46.824;-71.222;2023-09-19T07:09:20;4;4;2.95
82817;PMS5003;72572;46.824;-71.222;2023-09-19T07:11:46;3.67;2.67;1.67
82817;PMS5003;72572;46.824;-71.222;2023-09-19T07:14:12;2.9;2.67;1.67
82817;PMS5003;72572;46.824;-71.222;2023-09-19T07:16:37;5.05;3.81;2.05
82817;PMS5003;72572;46.824;-71.222;2023-09-19T07:19:02;2.67;2.33;1.52
82817;PMS5003;72572;46.824;-71.222;2023-09-19T07:21:26;3.38;3.1;1.62
82817;PMS5003;72572;46.824;-71.222;2023-09-19T07:23:54;3.18;3.18;2.09
82817;PMS5003;72572;46.824;-71.222;2023-09-19T07:26:18;2;2;1
82817;PMS5003;72572;46.824;-71.222;2023-09-19T07:28:43;3.76;3.67;2.67
82817;PMS5003;72572;46.824;-71.222;2023-09-19T07:31:08;4.38;2.9;2
82817;PMS5003;72572;46.824;-71.222;2023-09-19T07:33:34;3.62;3.62;2.24
82817;PMS5003;72572;46.824;-71.222;2023-09-19T07:36:00;5.81;4.81;3.38
82817;PMS5003;72572;46.824;-71.222;2023-09-19T07:38:26;3.95;3.24;2.24
82817;PMS5003;72572;46.824;-71.222;2023-09-19T07:40:51;4.23;4.09;2.55
82817;PMS5003;72572;46.824;-71.222;2023-09-19T07:43:17;6;6;4.67
82817;PMS5003;72572;46.824;-71.222;2023-09-19T07:45:41;4.33;4.33;2.33
82817;PMS5003;72572;46.824;-71.222;2023-09-19T07:48:08;4.55;4.55;3
82817;PMS5003;72572;46.824;-71.222;2023-09-19T07:50:37;4.95;4.95;3
82817;PMS5003;72572;46.824;-71.222;2023-09-19T07:52:58;2.38;2;1
82817;PMS5003;72572;46.824;-71.222;2023-09-19T07:55:22;2.9;2;1
82817;PMS5003;72572;46.824;-71.222;2023-09-19T07:57:47;3.64;3.41;2.55
82817;PMS5003;72572;46.824;-71.222;2023-09-19T08:00:13;1.9;1.9;1.19
82817;PMS5003;72572;46.824;-71.222;2023-09-19T08:02:43;1.71;1.71;1
82817;PMS5003;72572;46.824;-71.222;2023-09-19T08:05:07;3.23;3.23;1.36
82817;PMS5003;72572;46.824;-71.222;2023-09-19T08:07:32;3.59;3;1.59
82817;PMS5003;72572;46.824;-71.222;2023-09-19T08:09:58;2.33;2.33;1.76
82817;PMS5003;72572;46.824;-71.222;2023-09-19T08:12:24;2.81;2.19;1.48
82817;PMS5003;72572;46.824;-71.222;2023-09-19T08:14:50;4.05;3.45;1
82817;PMS5003;72572;46.824;-71.222;2023-09-19T08:17:13;2.1;2.1;1.95
82817;PMS5003;72572;46.824;-71.222;2023-09-19T08:19:38;2.76;2.67;1
82817;PMS5003;72572;46.824;-71.222;2023-09-19T08:22:05;2.33;2.1;1
82817;PMS5003;72572;46.824;-71.222;2023-09-19T08:24:31;2.81;2.52;1.52
82817;PMS5003;72572;46.824;-71.222;2023-09-19T08:26:54;2.62;2.62;2
82817;PMS5003;72572;46.824;-71.222;2023-09-19T08:29:20;2;2;1
82817;PMS5003;72572;46.824;-71.222;2023-09-19T08:31:47;2.82;2;1.77
82817;PMS5003;72572;46.824;-71.222;2023-09-19T08:34:13;2.81;2.19;1
82817;PMS5003;72572;46.824;-71.222;2023-09-19T08:36:36;2;1.9;0.52
82817;PMS5003;72572;46.824;-71.222;2023-09-19T08:39:04;3.24;2.05;1.05
82817;PMS5003;72572;46.824;-71.222;2023-09-19T08:41:26;2.9;2.9;1.81
82817;PMS5003;72572;46.824;-71.222;2023-09-19T08:43:53;2.24;1.76;1.24
82817;PMS5003;72572;46.824;-71.222;2023-09-19T08:46:18;1.95;1.95;1
82817;PMS5003;72572;46.824;-71.222;2023-09-19T08:48:45;2.68;2.45;1.14
82817;PMS5003;72572;46.824;-71.222;2023-09-19T08:51:12;2.9;2.9;1.38
82817;PMS5003;72572;46.824;-71.222;2023-09-19T08:53:39;3.05;3;2
82817;PMS5003;72572;46.824;-71.222;2023-09-19T08:55:59;1.67;1.67;1
82817;PMS5003;72572;46.824;-71.222;2023-09-19T08:58:26;2.1;1.33;1
82817;PMS5003;72572;46.824;-71.222;2023-09-19T09:13:07;3.25;2.8;1.8
82817;PMS5003;72572;46.824;-71.222;2023-09-19T09:13:36;2.09;2.09;1.41
82817;PMS5003;72572;46.824;-71.222;2023-09-19T09:13:52;2.14;2;1.14
82817;PMS5003;72572;46.824;-71.222;2023-09-19T09:14:04;1.73;1;0.23
82817;PMS5003;72572;46.824;-71.222;2023-09-19T09:14:17;2.68;1.82;1
82817;PMS5003;72572;46.824;-71.222;2023-09-19T09:14:36;1.41;1.41;1.23
82817;PMS5003;72572;46.824;-71.222;2023-09-19T09:17:04;2.67;2.67;1
82817;PMS5003;72572;46.824;-71.222;2023-09-19T09:19:27;2;2;1
82817;PMS5003;72572;46.824;-71.222;2023-09-19T09:21:54;2.86;2.86;1.86
82817;PMS5003;72572;46.824;-71.222;2023-09-19T09:24:27;1.48;1.48;0.67
82817;PMS5003;72572;46.824;-71.222;2023-09-19T09:26:44;1.62;1.52;1
82817;PMS5003;72572;46.824;-71.222;2023-09-19T09:29:10;2.67;2;1.38
82817;PMS5003;72572;46.824;-71.222;2023-09-19T09:31:35;2.85;2.25;1.35
82817;PMS5003;72572;46.824;-71.222;2023-09-19T09:34:00;1.76;1.76;1
82817;PMS5003;72572;46.824;-71.222;2023-09-19T09:36:40;2.62;1.95;1
82817;PMS5003;72572;46.824;-71.222;2023-09-19T09:38:53;2.5;2.5;1
82817;PMS5003;72572;46.824;-71.222;2023-09-19T09:41:35;2.52;2.05;1.1
82817;PMS5003;72572;46.824;-71.222;2023-09-19T09:43:42;2;2;1.24
82817;PMS5003;72572;46.824;-71.222;2023-09-19T09:46:12;2.62;2.62;2
82817;PMS5003;72572;46.824;-71.222;2023-09-19T09:48:34;3.52;3.1;2
82817;PMS5003;72572;46.824;-71.222;2023-09-19T09:50:59;2.67;2.67;1.9
82817;PMS5003;72572;46.824;-71.222;2023-09-19T09:53:33;3.23;3.09;1.95
82817;PMS5003;72572;46.824;-71.222;2023-09-19T09:56:01;2.23;2.23;1
82817;PMS5003;72572;46.824;-71.222;2023-09-19T09:58:32;3.1;3;1.38
82817;PMS5003;72572;46.824;-71.222;2023-09-19T10:00:54;3.76;3.24;2.1
82817;PMS5003;72572;46.824;-71.222;2023-09-19T10:03:19;7.3;6.75;2.25
82817;PMS5003;72572;46.824;-71.222;2023-09-19T10:05:41;7.35;7.2;3.95
82817;PMS5003;72572;46.824;-71.222;2023-09-19T10:08:10;3.86;2.81;1.67
82817;PMS5003;72572;46.824;-71.222;2023-09-19T10:10:32;2.09;2.09;1.41
82817;PMS5003;72572;46.824;-71.222;2023-09-19T10:12:57;2.33;2.33;1.52
82817;PMS5003;72572;46.824;-71.222;2023-09-19T10:15:21;2.67;2.67;2
82817;PMS5003;72572;46.824;-71.222;2023-09-19T10:17:47;2.71;2.38;2
82817;PMS5003;72572;46.824;-71.222;2023-09-19T10:20:12;1.9;1.9;1
82817;PMS5003;72572;46.824;-71.222;2023-09-19T10:22:39;1.76;1.76;1.1
82817;PMS5003;72572;46.824;-71.222;2023-09-19T10:25:04;2.18;2;1
82817;PMS5003;72572;46.824;-71.222;2023-09-19T10:27:37;2.82;2.27;1.14
82817;PMS5003;72572;46.824;-71.222;2023-09-19T10:29:54;1.1;1;0.38
82817;PMS5003;72572;46.824;-71.222;2023-09-19T10:32:18;4.19;3.62;1.9
82817;PMS5003;72572;46.824;-71.222;2023-09-19T10:34:45;3.33;3;2
82817;PMS5003;72572;46.824;-71.222;2023-09-19T10:37:10;2.9;2.38;1.1
82817;PMS5003;72572;46.824;-71.222;2023-09-19T10:39:36;3.19;3.05;2.67
82817;PMS5003;72572;46.824;-71.222;2023-09-19T10:42:02;2.05;2;1.52
82817;PMS5003;72572;46.824;-71.222;2023-09-19T10:44:25;6.05;4.91;3.36
82817;PMS5003;72572;46.824;-71.222;2023-09-19T10:46:51;7.05;7;3.05
82817;PMS5003;72572;46.824;-71.222;2023-09-19T10:49:18;2.57;2.24;1.1
82817;PMS5003;72572;46.824;-71.222;2023-09-19T10:51:43;6.2;6.2;3.85
82817;PMS5003;72572;46.824;-71.222;2023-09-19T10:54:08;4.1;4.1;3
82817;PMS5003;72572;46.824;-71.222;2023-09-19T10:56:32;4.38;4.38;2.67
82817;PMS5003;72572;46.824;-71.222;2023-09-19T10:59:05;4.67;4.19;2
82817;PMS5003;72572;46.824;-71.222;2023-09-19T11:01:33;4.18;4.18;2.55
82817;PMS5003;72572;46.824;-71.222;2023-09-19T11:03:49;2.19;1.52;1
82817;PMS5003;72572;46.824;-71.222;2023-09-19T11:06:16;3.05;3.05;1.9
82817;PMS5003;72572;46.824;-71.222;2023-09-19T11:09:00;2.76;2;1
82817;PMS5003;72572;46.824;-71.222;2023-09-19T11:11:06;3.19;2.48;1.67
82817;PMS5003;72572;46.824;-71.222;2023-09-19T11:13:32;2.48;2;1
82817;PMS5003;72572;46.824;-71.222;2023-09-19T11:16:09;3.95;3.19;1.67
82817;PMS5003;72572;46.824;-71.222;2023-09-19T11:18:54;2.41;2.41;1.41
82817;PMS5003;72572;46.824;-71.222;2023-09-19T11:21:52;4.1;2.38;1.24
82817;PMS5003;72572;46.824;-71.222;2023-09-19T11:23:28;3.1;2.9;2
82817;PMS5003;72572;46.824;-71.222;2023-09-19T11:25:55;3;2.9;1.38
82817;PMS5003;72572;46.824;-71.222;2023-09-19T11:28:34;7.35;6.65;3.85
82817;PMS5003;72572;46.824;-71.222;2023-09-19T11:30:31;3.24;3.24;2.05
82817;PMS5003;72572;46.824;-71.222;2023-09-19T11:33:21;1.95;1.95;0.95
82817;PMS5003;72572;46.824;-71.222;2023-09-19T11:35:18;4.18;3;1.82
82817;PMS5003;72572;46.824;-71.222;2023-09-19T11:38:15;1.38;1.38;0.38
82817;PMS5003;72572;46.824;-71.222;2023-09-19T11:40:17;1.24;1.24;1
82817;PMS5003;72572;46.824;-71.222;2023-09-19T11:42:44;2;2;1.24
82817;PMS5003;72572;46.824;-71.222;2023-09-19T11:45:01;4;4;2
82817;PMS5003;72572;46.824;-71.222;2023-09-19T11:47:25;3.05;2.33;1.81
82817;PMS5003;72572;46.824;-71.222;2023-09-19T11:49:50;2;1.76;1.1
82817;PMS5003;72572;46.824;-71.222;2023-09-19T11:52:21;4.38;3;1.57
82817;PMS5003;72572;46.824;-71.222;2023-09-19T11:54:43;1.38;1.38;1
82817;PMS5003;72572;46.824;-71.222;2023-09-19T11:57:07;2;2;1
82817;PMS5003;72572;46.824;-71.222;2023-09-19T11:59:38;2.38;2;0.9
82817;PMS5003;72572;46.824;-71.222;2023-09-19T12:01:59;2.52;2.1;0.9
82817;PMS5003;72572;46.824;-71.222;2023-09-19T12:04:33;3.05;2.24;1.24
82817;PMS5003;72572;46.824;-71.222;2023-09-19T12:06:56;2;2;1.1
82817;PMS5003;72572;46.824;-71.222;2023-09-19T12:09:15;3;3;2
82817;PMS5003;72572;46.824;-71.222;2023-09-19T12:11:42;2.1;2.1;1.81
82817;PMS5003;72572;46.824;-71.222;2023-09-19T12:14:05;2;2;1.95
82817;PMS5003;72572;46.824;-71.222;2023-09-19T12:16:30;2.81;2.24;1.67
82817;PMS5003;72572;46.824;-71.222;2023-09-19T12:18:57;3;3;2
82817;PMS5003;72572;46.824;-71.222;2023-09-19T12:21:30;0.81;0.81;0
82817;PMS5003;72572;46.824;-71.222;2023-09-19T12:23:56;1.24;1.24;0.52
82817;PMS5003;72572;46.824;-71.222;2023-09-19T12:26:13;1.18;1.18;0.68
82817;PMS5003;72572;46.824;-71.222;2023-09-19T12:28:41;2.33;2.24;2
82817;PMS5003;72572;46.824;-71.222;2023-09-19T12:31:07;3.24;3;2.38
82817;PMS5003;72572;46.824;-71.222;2023-09-19T12:33:30;1.67;1.67;1
82817;PMS5003;72572;46.824;-71.222;2023-09-19T12:35:54;1;1;0.1
82817;PMS5003;72572;46.824;-71.222;2023-09-19T12:38:24;1.67;1.67;0.67
82817;PMS5003;72572;46.824;-71.222;2023-09-19T12:40:47;2.38;2;1.52
82817;PMS5003;72572;46.824;-71.222;2023-09-19T12:43:10;3;3;1.68
82817;PMS5003;72572;46.824;-71.222;2023-09-19T12:45:36;2;1.9;1.1
82817;PMS5003;72572;46.824;-71.222;2023-09-19T12:48:21;2.24;1;0
82817;PMS5003;72572;46.824;-71.222;2023-09-19T12:50:29;1.67;1.38;0.81
82817;PMS5003;72572;46.824;-71.222;2023-09-19T12:52:52;0.1;0.1;0
82817;PMS5003;72572;46.824;-71.222;2023-09-19T12:55:20;1;0.38;0
82817;PMS5003;72572;46.824;-71.222;2023-09-19T12:57:43;1;0.67;0
82817;PMS5003;72572;46.824;-71.222;2023-09-19T13:00:10;1.09;1;0.82
82817;PMS5003;72572;46.824;-71.222;2023-09-19T13:02:34;1.33;1;0.62
82817;PMS5003;72572;46.824;-71.222;2023-09-19T13:04:58;0.52;0.24;0
82817;PMS5003;72572;46.824;-71.222;2023-09-19T13:07:43;0.1;0.1;0
82817;PMS5003;72572;46.824;-71.222;2023-09-19T13:10:02;1;1;1
82817;PMS5003;72572;46.824;-71.222;2023-09-19T13:12:42;0;0;0
82817;PMS5003;72572;46.824;-71.222;2023-09-19T13:14:40;0.52;0.52;0
82817;PMS5003;72572;46.824;-71.222;2023-09-19T13:17:08;0.41;0.14;0
82817;PMS5003;72572;46.824;-71.222;2023-09-19T13:19:35;0.52;0.52;0
82817;PMS5003;72572;46.824;-71.222;2023-09-19T13:21:58;0;0;0
82817;PMS5003;72572;46.824;-71.222;2023-09-19T13:24:23;0;0;0
82817;PMS5003;72572;46.824;-71.222;2023-09-19T13:26:48;0;0;0
82817;PMS5003;72572;46.824;-71.222;2023-09-19T13:29:14;0;0;0
82817;PMS5003;72572;46.824;-71.222;2023-09-19T13:31:37;0;0;0
82817;PMS5003;72572;46.824;-71.222;2023-09-19T13:34:03;0.73;0.73;0
82817;PMS5003;72572;46.824;-71.222;2023-09-19T13:36:31;0.33;0;0
82817;PMS5003;72572;46.824;-71.222;2023-09-19T13:38:55;0;0;0
82817;PMS5003;72572;46.824;-71.222;2023-09-19T13:41:20;0;0;0
82817;PMS5003;72572;46.824;-71.222;2023-09-19T13:43:45;0;0;0
82817;PMS5003;72572;46.824;-71.222;2023-09-19T13:46:11;0;0;0
82817;PMS5003;72572;46.824;-71.222;2023-09-19T13:48:35;0.24;0.24;0
82817;PMS5003;72572;46.824;-71.222;2023-09-19T13:51:02;0;0;0
82817;PMS5003;72572;46.824;-71.222;2023-09-19T13:53:26;0.67;0.67;0
82817;PMS5003;72572;46.824;-71.222;2023-09-19T13:55:53;0;0;0
82817;PMS5003;72572;46.824;-71.222;2023-09-19T13:58:17;0.67;0;0
82817;PMS5003;72572;46.824;-71.222;2023-09-19T14:00:44;0.05;0.05;0
82817;PMS5003;72572;46.824;-71.222;2023-09-19T14:03:07;0;0;0
82817;PMS5003;72572;46.824;-71.222;2023-09-19T14:05:34;1;0.24;0
82817;PMS5003;72572;46.824;-71.222;2023-09-19T14:08:03;0.41;0.41;0